Time;durP1;ratioP1;P1;durP2;ratioP2;P2;SDS_P1;SDS_P2;PMS_P1;PMS_P2;Temp;Humidity;BMP_temperature;BMP_pressure;BME280_temperature;BME280_humidity;BME280_pressure;Samples;Min_cycle;Max_cycle;Signal;HPM_P1;HPM_P2
2021/08/08 00:02:23;;;;;;;6.50;2.60;;;17.00;97.30;;;;;;5117403;28;20232;-83
2021/08/08 00:04:49;;;;;;;6.53;2.73;;;16.90;97.30;;;;;;5116429;28;20181;-83
2021/08/08 00:07:15;;;;;;;3.93;2.23;;;16.90;97.30;;;;;;5118672;28;20170;-83
2021/08/08 00:09:42;;;;;;;3.20;2.47;;;16.90;97.30;;;;;;5118670;28;20169;-83
2021/08/08 00:12:08;;;;;;;3.17;2.33;;;16.80;97.30;;;;;;5119482;28;20611;-82
2021/08/08 00:14:34;;;;;;;3.03;2.60;;;16.80;97.30;;;;;;5118208;28;20416;-83
2021/08/08 00:16:59;;;;;;;3.67;3.03;;;16.80;97.30;;;;;;5117995;28;20430;-83
2021/08/08 00:19:25;;;;;;;4.20;2.53;;;16.70;97.30;;;;;;5117531;28;20552;-83
2021/08/08 00:21:50;;;;;;;3.20;2.80;;;16.70;97.30;;;;;;5118351;28;20193;-83
2021/08/08 00:24:16;;;;;;;3.47;2.50;;;16.70;97.30;;;;;;5116628;28;20265;-84
2021/08/08 00:26:41;;;;;;;6.27;2.70;;;16.70;97.30;;;;;;5117493;28;20184;-84
2021/08/08 00:29:07;;;;;;;7.00;2.30;;;16.60;97.30;;;;;;5116387;28;20181;-83
2021/08/08 00:31:32;;;;;;;3.83;2.27;;;16.60;97.30;;;;;;5115832;28;20185;-83
2021/08/08 00:33:58;;;;;;;5.33;2.90;;;16.60;97.30;;;;;;5119929;27;20225;-84
2021/08/08 00:36:23;;;;;;;3.87;2.47;;;16.50;97.30;;;;;;5120051;27;20172;-83
2021/08/08 00:38:49;;;;;;;3.43;2.50;;;16.50;97.30;;;;;;5119919;27;20523;-83
2021/08/08 00:41:15;;;;;;;3.17;2.70;;;16.50;97.30;;;;;;5119785;27;20222;-84
2021/08/08 00:43:40;;;;;;;6.17;2.50;;;16.50;97.30;;;;;;5120277;27;20209;-83
2021/08/08 00:46:06;;;;;;;3.13;2.57;;;16.50;97.30;;;;;;5139328;27;20403;-82
2021/08/08 00:48:31;;;;;;;4.07;2.70;;;16.40;97.30;;;;;;5120885;27;20169;-82
2021/08/08 00:50:58;;;;;;;5.40;2.67;;;16.40;97.30;;;;;;5140459;27;20184;-83
2021/08/08 00:53:24;;;;;;;7.50;2.53;;;16.40;97.30;;;;;;5120591;27;20278;-83
2021/08/08 00:55:49;;;;;;;4.00;2.83;;;16.30;97.30;;;;;;5120986;27;20419;-84
2021/08/08 00:58:15;;;;;;;7.03;2.50;;;16.30;97.30;;;;;;5138704;27;20427;-83
2021/08/08 01:00:42;;;;;;;4.30;2.63;;;16.30;97.30;;;;;;5138779;27;20190;-82
2021/08/08 01:03:12;;;;;;;4.47;2.60;;;16.30;97.30;;;;;;5121049;27;20304;-82
2021/08/08 01:06:12;;;;;;;5.80;2.60;;;16.20;97.30;;;;;;5120355;27;20483;-83
2021/08/08 01:08:44;;;;;;;4.07;2.70;;;16.20;97.30;;;;;;5111831;27;20411;-83
2021/08/08 01:11:10;;;;;;;5.37;3.03;;;16.20;97.30;;;;;;5119467;27;20415;-82
2021/08/08 01:13:37;;;;;;;3.50;2.40;;;16.10;97.30;;;;;;5119001;27;20877;-83
2021/08/08 01:16:03;;;;;;;6.20;2.60;;;16.10;97.30;;;;;;5118316;27;20419;-83
2021/08/08 01:18:30;;;;;;;5.33;2.97;;;16.10;97.30;;;;;;5099085;28;20502;-83
2021/08/08 01:20:56;;;;;;;5.37;2.90;;;16.10;97.30;;;;;;5099180;28;20760;-83
2021/08/08 01:23:24;;;;;;;4.80;2.53;;;16.00;97.30;;;;;;5099617;28;20623;-83
2021/08/08 01:25:50;;;;;;;4.20;2.43;;;16.00;97.30;;;;;;5100253;28;20209;-85
2021/08/08 01:28:16;;;;;;;4.00;2.80;;;16.00;97.30;;;;;;5118059;28;20788;-83
2021/08/08 01:30:41;;;;;;;4.00;2.43;;;16.00;97.30;;;;;;5099981;28;20424;-82
2021/08/08 01:33:09;;;;;;;2.80;2.27;;;15.90;97.30;;;;;;5118668;28;20837;-83
2021/08/08 01:35:34;;;;;;;3.00;2.37;;;15.90;97.30;;;;;;5100529;28;20185;-83
2021/08/08 01:38:00;;;;;;;4.93;2.83;;;15.90;97.30;;;;;;5099563;28;20432;-83
2021/08/08 01:40:37;;;;;;;6.70;2.87;;;15.80;97.30;;;;;;5099849;28;20178;-83
2021/08/08 01:43:08;;;;;;;5.10;2.93;;;15.80;97.30;;;;;;5118368;28;20469;-85
2021/08/08 01:45:36;;;;;;;5.23;2.50;;;15.80;97.30;;;;;;5098296;28;20515;-83
2021/08/08 01:48:04;;;;;;;3.60;2.50;;;15.80;97.30;;;;;;5116787;28;20419;-83
2021/08/08 01:50:31;;;;;;;3.80;2.70;;;15.70;97.30;;;;;;5098232;28;20476;-83
2021/08/08 01:52:59;;;;;;;3.40;2.43;;;15.70;97.30;;;;;;5097892;28;20471;-84
2021/08/08 01:55:24;;;;;;;5.07;2.53;;;15.70;97.30;;;;;;5116604;28;20443;-83
2021/08/08 01:57:50;;;;;;;5.20;2.87;;;15.70;97.30;;;;;;5116650;28;20928;-83
2021/08/08 02:00:19;;;;;;;3.10;2.50;;;15.70;97.30;;;;;;5098360;28;20213;-83
2021/08/08 02:02:52;;;;;;;6.13;2.90;;;15.70;97.30;;;;;;5117981;28;20210;-83
2021/08/08 02:05:19;;;;;;;3.47;2.53;;;15.70;97.30;;;;;;5118355;28;20929;-83
2021/08/08 02:07:45;;;;;;;6.50;2.70;;;15.70;97.30;;;;;;5100978;28;20449;-83
2021/08/08 02:10:10;;;;;;;5.40;2.93;;;15.70;97.30;;;;;;5100599;28;20415;-83
2021/08/08 02:12:36;;;;;;;4.47;3.00;;;15.60;97.30;;;;;;5119038;28;20476;-83
2021/08/08 02:15:01;;;;;;;3.37;2.80;;;15.70;97.30;;;;;;5100783;28;20238;-83
2021/08/08 02:17:27;;;;;;;4.83;2.90;;;15.60;97.30;;;;;;5115305;28;20188;-83
2021/08/08 02:19:52;;;;;;;5.70;2.73;;;15.60;97.30;;;;;;5126161;28;20177;-82
2021/08/08 02:22:18;;;;;;;7.73;2.90;;;15.60;97.30;;;;;;5119870;28;20189;-84
2021/08/08 02:24:43;;;;;;;5.23;2.93;;;15.60;97.30;;;;;;5118215;28;20177;-83
2021/08/08 02:27:09;;;;;;;2.60;2.40;;;15.60;97.30;;;;;;5118645;28;20211;-84
2021/08/08 02:29:34;;;;;;;6.93;2.60;;;15.60;97.30;;;;;;5118719;27;20177;-82
2021/08/08 02:32:00;;;;;;;3.73;2.80;;;15.50;97.30;;;;;;5139861;27;20169;-80
2021/08/08 02:34:26;;;;;;;8.33;3.00;;;15.50;97.30;;;;;;5118454;28;20237;-84
2021/08/08 02:36:52;;;;;;;23.73;3.80;;;15.50;97.30;;;;;;5120663;28;20812;-83
2021/08/08 02:39:17;;;;;;;6.10;4.00;;;15.50;97.30;;;;;;5120549;28;20186;-83
2021/08/08 02:41:42;;;;;;;4.10;2.90;;;15.50;97.30;;;;;;5119861;28;20244;-83
2021/08/08 02:44:08;;;;;;;4.53;2.67;;;15.50;97.30;;;;;;5119637;28;20664;-83
2021/08/08 02:46:33;;;;;;;3.30;2.67;;;15.50;97.30;;;;;;5119932;28;20170;-82
2021/08/08 02:48:59;;;;;;;8.33;2.73;;;15.50;97.30;;;;;;5120924;28;20173;-83
2021/08/08 02:51:25;;;;;;;5.60;2.57;;;15.50;97.30;;;;;;5120257;28;20227;-83
2021/08/08 02:53:50;;;;;;;5.33;3.30;;;15.50;97.30;;;;;;5119578;28;20190;-83
2021/08/08 02:56:16;;;;;;;6.63;3.87;;;15.40;97.30;;;;;;5119347;28;20640;-84
2021/08/08 02:58:41;;;;;;;7.10;3.07;;;15.50;97.30;;;;;;5118531;28;20178;-83
2021/08/08 03:01:07;;;;;;;4.43;2.93;;;15.50;97.30;;;;;;5117674;28;20184;-83
2021/08/08 03:03:33;;;;;;;4.80;2.63;;;15.60;97.30;;;;;;5125960;28;20204;-85
2021/08/08 03:06:00;;;;;;;2.80;2.40;;;15.60;97.30;;;;;;5127579;28;20189;-84
2021/08/08 03:08:26;;;;;;;4.30;2.40;;;15.70;97.30;;;;;;5129521;28;20431;-83
2021/08/08 03:10:51;;;;;;;4.13;2.33;;;15.70;97.30;;;;;;5127730;28;20400;-82
2021/08/08 03:13:17;;;;;;;15.30;3.20;;;15.80;97.30;;;;;;5130243;28;20681;-84
2021/08/08 03:15:43;;;;;;;6.83;2.60;;;15.80;97.30;;;;;;5129006;28;20643;-84
2021/08/08 03:18:08;;;;;;;5.17;2.80;;;15.80;97.30;;;;;;5107148;28;20171;-84
2021/08/08 03:20:34;;;;;;;3.03;2.40;;;15.90;97.30;;;;;;5102611;28;20737;-83
2021/08/08 03:22:59;;;;;;;3.40;2.80;;;15.90;97.30;;;;;;5101513;28;20198;-83
2021/08/08 03:25:25;;;;;;;3.43;2.10;;;15.90;97.30;;;;;;5100477;28;20230;-84
2021/08/08 03:27:50;;;;;;;4.03;2.70;;;15.90;97.30;;;;;;5099065;28;20178;-83
2021/08/08 03:30:16;;;;;;;4.30;2.07;;;15.90;97.30;;;;;;5099477;28;20171;-82
2021/08/08 03:32:42;;;;;;;6.90;2.50;;;16.00;97.30;;;;;;5101793;28;20680;-83
2021/08/08 03:35:08;;;;;;;3.53;2.73;;;16.00;97.30;;;;;;5103700;28;20519;-83
2021/08/08 03:37:33;;;;;;;3.40;2.13;;;16.00;97.30;;;;;;5101831;28;20245;-83
2021/08/08 03:39:59;;;;;;;2.47;2.30;;;16.00;97.30;;;;;;5102442;28;20461;-84
2021/08/08 03:42:24;;;;;;;2.93;2.23;;;15.90;97.30;;;;;;5101323;28;20594;-83
2021/08/08 03:44:52;;;;;;;3.70;2.57;;;15.90;97.30;;;;;;5101415;28;20198;-82
2021/08/08 03:47:20;;;;;;;4.50;2.33;;;15.90;97.30;;;;;;5101009;28;20170;-84
2021/08/08 03:49:46;;;;;;;5.30;2.33;;;15.90;97.30;;;;;;5101345;28;20418;-83
2021/08/08 03:52:12;;;;;;;5.67;2.33;;;15.90;97.30;;;;;;5101403;28;20419;-84
2021/08/08 03:54:37;;;;;;;6.37;2.50;;;15.90;97.30;;;;;;5101198;28;20174;-83
2021/08/08 03:57:03;;;;;;;2.67;2.50;;;15.90;97.30;;;;;;5119712;28;20170;-83
2021/08/08 03:59:29;;;;;;;3.73;2.57;;;15.90;97.30;;;;;;5101124;28;20208;-83
2021/08/08 04:01:54;;;;;;;4.50;2.53;;;15.90;97.30;;;;;;5100051;28;20246;-83
2021/08/08 04:04:20;;;;;;;5.00;3.10;;;15.90;97.30;;;;;;5100737;28;20273;-83
2021/08/08 04:06:45;;;;;;;4.77;2.20;;;15.90;97.30;;;;;;5101066;28;20226;-83
2021/08/08 04:09:11;;;;;;;3.60;2.43;;;16.00;97.30;;;;;;5118454;28;20173;-84
2021/08/08 04:11:37;;;;;;;3.40;2.20;;;16.00;97.30;;;;;;5117519;28;20206;-83
2021/08/08 04:14:02;;;;;;;2.53;2.10;;;16.00;97.30;;;;;;5118576;28;20201;-83
2021/08/08 04:16:28;;;;;;;4.13;2.73;;;16.00;97.30;;;;;;5104710;27;20433;-83
2021/08/08 04:18:54;;;;;;;2.83;2.20;;;16.00;97.30;;;;;;5137744;27;20173;-84
2021/08/08 04:21:19;;;;;;;7.80;2.40;;;16.00;97.30;;;;;;5138013;27;20206;-83
2021/08/08 04:23:45;;;;;;;3.87;2.20;;;16.00;97.30;;;;;;5119093;27;20208;-83
2021/08/08 04:26:10;;;;;;;3.40;2.33;;;16.10;97.30;;;;;;5119166;27;20466;-85
2021/08/08 04:28:39;;;;;;;4.20;2.50;;;16.10;97.30;;;;;;5119815;27;20263;-84
2021/08/08 04:31:06;;;;;;;5.83;2.27;;;16.10;97.30;;;;;;5138822;27;20176;-83
2021/08/08 04:33:34;;;;;;;4.73;2.47;;;16.20;97.30;;;;;;5116433;28;20475;-83
2021/08/08 04:35:59;;;;;;;2.30;2.20;;;16.20;97.30;;;;;;5117664;28;20879;-82
2021/08/08 04:38:25;;;;;;;4.07;2.23;;;16.30;97.30;;;;;;5116489;28;20451;-85
2021/08/08 04:40:50;;;;;;;6.03;2.00;;;16.30;97.30;;;;;;5115906;28;20177;-83
2021/08/08 04:43:16;;;;;;;3.83;2.40;;;16.30;97.30;;;;;;5116909;28;20229;-82
2021/08/08 04:45:41;;;;;;;2.50;2.33;;;16.40;97.30;;;;;;5116204;28;20180;-83
2021/08/08 04:48:07;;;;;;;2.57;1.93;;;16.40;97.30;;;;;;5116506;28;20184;-83
2021/08/08 04:50:32;;;;;;;4.70;2.20;;;16.50;97.30;;;;;;5116323;28;20177;-83
2021/08/08 04:52:58;;;;;;;3.43;1.90;;;16.50;97.30;;;;;;5117053;28;20290;-85
2021/08/08 04:55:23;;;;;;;4.70;2.20;;;16.50;97.30;;;;;;5119234;28;20192;-84
2021/08/08 04:57:49;;;;;;;2.03;1.60;;;16.60;97.30;;;;;;5115349;28;20264;-83
2021/08/08 05:00:16;;;;;;;3.20;2.10;;;16.60;97.30;;;;;;5114970;28;20631;-84
2021/08/08 05:02:45;;;;;;;2.63;1.90;;;16.60;97.30;;;;;;5115816;28;20208;-83
2021/08/08 05:05:12;;;;;;;2.90;2.23;;;16.70;97.30;;;;;;5115252;28;20419;-84
2021/08/08 05:07:39;;;;;;;4.10;2.17;;;16.70;97.30;;;;;;5117883;28;20404;-84
2021/08/08 05:10:08;;;;;;;2.17;2.00;;;16.80;97.30;;;;;;5117946;28;20419;-83
2021/08/08 05:12:34;;;;;;;2.40;1.77;;;16.80;97.30;;;;;;5116251;28;20493;-83
2021/08/08 05:14:59;;;;;;;2.70;2.03;;;16.80;97.30;;;;;;5115961;28;20415;-83
2021/08/08 05:17:24;;;;;;;4.00;2.40;;;16.80;97.30;;;;;;5102899;28;20184;-83
2021/08/08 05:19:50;;;;;;;2.40;1.73;;;16.80;97.30;;;;;;5096551;28;20192;-83
2021/08/08 05:22:15;;;;;;;2.50;2.30;;;16.80;97.30;;;;;;5095494;28;20288;-82
2021/08/08 05:24:41;;;;;;;2.50;2.00;;;16.90;97.30;;;;;;5096725;28;20174;-83
2021/08/08 05:27:06;;;;;;;5.33;1.97;;;16.90;97.30;;;;;;5095723;28;20552;-83
2021/08/08 05:29:32;;;;;;;4.53;2.40;;;17.00;97.30;;;;;;5093840;28;20720;-82
2021/08/08 05:31:57;;;;;;;3.17;2.10;;;17.10;97.30;;;;;;5094560;28;20224;-83
2021/08/08 05:34:23;;;;;;;2.17;2.00;;;17.10;97.30;;;;;;5094678;28;20233;-83
2021/08/08 05:36:48;;;;;;;6.87;2.10;;;17.20;97.30;;;;;;5094732;28;20186;-83
2021/08/08 05:39:14;;;;;;;2.10;2.00;;;17.30;97.30;;;;;;5094406;28;20182;-83
2021/08/08 05:41:39;;;;;;;3.00;1.63;;;17.30;97.30;;;;;;5094287;28;20175;-85
2021/08/08 05:44:05;;;;;;;2.80;1.90;;;17.40;97.30;;;;;;5094234;28;20310;-83
2021/08/08 05:46:30;;;;;;;2.27;1.93;;;17.40;97.30;;;;;;5095860;28;20602;-83
2021/08/08 05:48:56;;;;;;;1.83;1.80;;;17.50;97.30;;;;;;5095354;28;20171;-83
2021/08/08 05:51:21;;;;;;;2.77;1.73;;;17.60;97.30;;;;;;5094069;28;20198;-82
2021/08/08 05:53:47;;;;;;;1.90;1.60;;;17.70;97.30;;;;;;5094027;28;20688;-84
2021/08/08 05:56:12;;;;;;;2.80;1.90;;;17.80;97.30;;;;;;5094332;28;20210;-85
2021/08/08 05:58:38;;;;;;;1.90;1.30;;;17.80;97.30;;;;;;5094205;28;20315;-83
2021/08/08 06:01:03;;;;;;;4.60;2.07;;;17.90;97.30;;;;;;5094527;28;20212;-84
2021/08/08 06:03:29;;;;;;;2.50;1.80;;;17.90;97.30;;;;;;5094326;28;20225;-84
2021/08/08 06:05:54;;;;;;;2.73;1.73;;;18.00;97.30;;;;;;5097028;28;20281;-83
2021/08/08 06:08:20;;;;;;;2.70;2.07;;;18.00;97.30;;;;;;5096205;28;20662;-84
2021/08/08 06:10:45;;;;;;;2.70;1.97;;;18.00;97.30;;;;;;5097075;28;20173;-84
2021/08/08 06:13:11;;;;;;;3.37;1.90;;;18.10;97.30;;;;;;5096798;28;20672;-83
2021/08/08 06:15:36;;;;;;;3.33;1.73;;;18.20;97.30;;;;;;5097406;28;20170;-83
2021/08/08 06:18:02;;;;;;;1.70;1.60;;;18.30;97.30;;;;;;5115474;28;20174;-84
2021/08/08 06:20:28;;;;;;;5.23;1.80;;;18.40;97.30;;;;;;5116224;28;20182;-83
2021/08/08 06:22:54;;;;;;;3.07;1.70;;;18.40;97.30;;;;;;5117684;28;20459;-83
2021/08/08 06:25:19;;;;;;;2.00;1.50;;;18.50;97.30;;;;;;5118708;28;20170;-84
2021/08/08 06:27:45;;;;;;;3.10;1.60;;;18.50;97.30;;;;;;5116920;28;20177;-84
2021/08/08 06:30:11;;;;;;;7.23;1.70;;;18.60;97.30;;;;;;5118582;28;20170;-84
2021/08/08 06:35:06;;;;;;;2.83;1.40;;;18.70;97.30;;;;;;5114594;28;20863;-86
2021/08/08 06:37:32;;;;;;;3.20;1.50;;;18.70;97.30;;;;;;5099674;28;20424;-83
2021/08/08 06:39:58;;;;;;;3.93;1.60;;;18.80;97.30;;;;;;5099084;28;20491;-86
2021/08/08 06:42:24;;;;;;;1.87;1.33;;;18.80;97.30;;;;;;5117712;28;21281;-86
2021/08/08 06:44:50;;;;;;;2.23;1.60;;;18.90;97.30;;;;;;5099950;28;20174;-87
2021/08/08 06:47:15;;;;;;;2.60;1.60;;;18.90;97.30;;;;;;5098953;28;20422;-88
2021/08/08 06:49:41;;;;;;;5.27;1.70;;;19.00;97.30;;;;;;5099726;28;20182;-88
2021/08/08 06:52:06;;;;;;;3.87;1.60;;;19.00;97.30;;;;;;5117570;28;20194;-87
2021/08/08 06:54:32;;;;;;;2.30;1.47;;;19.10;97.30;;;;;;5117816;28;20180;-88
2021/08/08 06:56:57;;;;;;;2.60;1.77;;;19.10;97.30;;;;;;5118011;28;20174;-88
2021/08/08 06:59:29;;;;;;;2.50;1.60;;;19.10;97.30;;;;;;5098750;28;20257;-86
2021/08/08 07:01:55;;;;;;;3.83;1.40;;;19.20;97.30;;;;;;5098826;28;20205;-87
2021/08/08 07:04:20;;;;;;;2.20;1.43;;;19.30;97.30;;;;;;5099460;28;20407;-88
2021/08/08 07:06:46;;;;;;;3.03;1.80;;;19.40;97.30;;;;;;5098579;28;20172;-87
2021/08/08 07:09:12;;;;;;;1.80;1.60;;;19.50;97.30;;;;;;5099269;28;20170;-87
2021/08/08 07:11:38;;;;;;;2.57;1.73;;;19.50;97.30;;;;;;5099502;28;20194;-88
2021/08/08 07:14:03;;;;;;;3.57;1.53;;;19.60;97.30;;;;;;5098160;28;20201;-87
2021/08/08 07:16:29;;;;;;;2.57;1.80;;;19.70;97.30;;;;;;5098107;28;20418;-87
2021/08/08 07:18:54;;;;;;;1.60;1.50;;;19.70;97.30;;;;;;5099054;28;20174;-87
2021/08/08 07:21:20;;;;;;;1.50;1.43;;;19.80;97.30;;;;;;5099011;28;20201;-88
2021/08/08 07:23:46;;;;;;;1.50;1.40;;;19.90;97.30;;;;;;5099135;28;20564;-90
2021/08/08 07:26:11;;;;;;;1.40;1.30;;;20.00;97.30;;;;;;5098382;28;20482;-86
2021/08/08 07:28:37;;;;;;;1.80;1.50;;;20.00;97.20;;;;;;5098832;28;20172;-88
2021/08/08 07:31:02;;;;;;;3.10;1.50;;;20.10;97.00;;;;;;5098434;28;20650;-87
2021/08/08 07:33:28;;;;;;;1.87;1.60;;;20.20;96.50;;;;;;5103179;28;20756;-87
2021/08/08 07:35:54;;;;;;;4.53;1.30;;;20.30;95.20;;;;;;5117485;28;20661;-86
2021/08/08 07:38:19;;;;;;;1.77;1.23;;;20.40;94.40;;;;;;5116794;28;20178;-88
2021/08/08 07:40:45;;;;;;;2.43;1.53;;;20.50;95.20;;;;;;5115639;28;20180;-86
2021/08/08 07:43:12;;;;;;;3.20;1.60;;;20.50;93.90;;;;;;5115024;28;20213;-89
2021/08/08 07:45:38;;;;;;;3.00;1.60;;;20.30;92.70;;;;;;5115300;28;20226;-87
2021/08/08 07:48:04;;;;;;;1.33;1.23;;;20.20;93.60;;;;;;5114460;28;20407;-87
2021/08/08 07:50:29;;;;;;;7.70;1.53;;;20.00;93.50;;;;;;5115636;28;20420;-87
2021/08/08 07:52:55;;;;;;;2.80;1.50;;;20.00;94.80;;;;;;5115169;28;20429;-87
2021/08/08 07:55:21;;;;;;;2.03;1.30;;;19.90;95.30;;;;;;5114890;28;20173;-88
2021/08/08 07:57:47;;;;;;;5.87;1.60;;;19.80;94.60;;;;;;5114971;28;20177;-87
2021/08/08 08:00:12;;;;;;;4.03;1.57;;;19.80;94.90;;;;;;5115170;28;20414;-86
2021/08/08 08:02:39;;;;;;;6.60;1.50;;;19.70;94.80;;;;;;5114642;28;20202;-87
2021/08/08 08:05:05;;;;;;;2.83;1.67;;;19.70;93.90;;;;;;5114549;28;20597;-88
2021/08/08 08:07:31;;;;;;;3.40;1.50;;;19.60;94.20;;;;;;5114630;28;20450;-88
2021/08/08 08:09:56;;;;;;;3.47;1.53;;;19.70;93.80;;;;;;5114807;28;20411;-89
2021/08/08 08:12:22;;;;;;;2.00;1.63;;;19.80;94.90;;;;;;5114293;28;20202;-87
2021/08/08 08:14:47;;;;;;;1.50;1.40;;;20.00;94.30;;;;;;5114771;28;20202;-87
2021/08/08 08:17:13;;;;;;;5.77;1.80;;;20.20;94.90;;;;;;5115017;28;20174;-87
2021/08/08 08:19:39;;;;;;;1.53;1.50;;;20.40;94.50;;;;;;5114480;28;20174;-87
2021/08/08 08:22:04;;;;;;;2.10;1.70;;;20.40;93.50;;;;;;5113976;28;20306;-87
2021/08/08 08:24:30;;;;;;;1.90;1.30;;;20.50;93.90;;;;;;5114506;28;20185;-87
2021/08/08 08:26:55;;;;;;;1.60;1.50;;;20.60;94.30;;;;;;5115611;28;20290;-86
2021/08/08 08:29:21;;;;;;;2.23;1.77;;;20.60;92.70;;;;;;5115701;28;20204;-85
2021/08/08 08:31:46;;;;;;;4.27;1.57;;;20.60;92.00;;;;;;5115622;28;20312;-87
2021/08/08 08:34:12;;;;;;;3.57;1.53;;;20.70;93.50;;;;;;5114199;28;20217;-86
2021/08/08 08:36:38;;;;;;;3.60;3.40;;;20.90;91.00;;;;;;5114127;28;20182;-86
2021/08/08 08:39:03;;;;;;;2.80;1.70;;;21.00;91.60;;;;;;5114636;28;20760;-88
2021/08/08 08:41:31;;;;;;;2.27;2.07;;;20.90;90.80;;;;;;5113860;28;20205;-87
2021/08/08 08:43:59;;;;;;;1.67;1.20;;;20.90;91.90;;;;;;5114151;28;20686;-88
2021/08/08 08:46:25;;;;;;;2.83;1.73;;;21.10;92.30;;;;;;5114919;28;20514;-86
2021/08/08 08:48:53;;;;;;;3.57;1.50;;;21.20;91.00;;;;;;5114596;28;20791;-86
2021/08/08 08:51:20;;;;;;;3.10;1.40;;;21.30;89.90;;;;;;5113715;28;20512;-86
2021/08/08 08:53:46;;;;;;;2.70;1.43;;;21.40;90.70;;;;;;5108484;28;20432;-87
2021/08/08 08:56:13;;;;;;;2.30;1.20;;;21.40;89.50;;;;;;5093937;28;20428;-87
2021/08/08 08:58:39;;;;;;;2.37;1.50;;;21.50;89.40;;;;;;5102665;28;20420;-88
2021/08/08 09:01:05;;;;;;;4.60;1.93;;;21.50;88.00;;;;;;5111648;28;20412;-89
2021/08/08 09:03:30;;;;;;;2.20;1.67;;;21.50;88.10;;;;;;5092878;28;20210;-86
2021/08/08 09:05:56;;;;;;;1.13;1.10;;;21.30;87.80;;;;;;5108069;28;20616;-86
2021/08/08 09:08:21;;;;;;;2.77;1.60;;;21.10;87.80;;;;;;5113137;28;20181;-86
2021/08/08 09:11:04;;;;;;;5.67;1.93;;;21.20;88.20;;;;;;5113528;28;20233;-88
2021/08/08 09:13:31;;;;;;;2.57;1.40;;;21.40;88.90;;;;;;5113989;28;20212;-85
2021/08/08 09:15:56;;;;;;;2.20;1.67;;;21.60;88.90;;;;;;5098385;28;20405;-87
2021/08/08 09:18:23;;;;;;;1.50;1.50;;;21.80;88.60;;;;;;5093854;28;20424;-86
2021/08/08 09:20:50;;;;;;;2.93;1.40;;;22.10;88.70;;;;;;5099348;28;20551;-88
2021/08/08 09:23:17;;;;;;;1.67;1.60;;;22.00;86.50;;;;;;5113615;28;20447;-87
2021/08/08 09:25:50;;;;;;;1.40;1.30;;;21.70;86.50;;;;;;5114533;28;20423;-87
2021/08/08 09:28:15;;;;;;;1.40;1.30;;;21.50;87.10;;;;;;5113812;28;20503;-86
2021/08/08 09:30:42;;;;;;;2.03;1.33;;;21.50;88.30;;;;;;5113459;28;20633;-89
2021/08/08 09:33:10;;;;;;;3.63;1.80;;;21.60;88.30;;;;;;5112970;28;20230;-86
2021/08/08 09:35:41;;;;;;;1.80;1.33;;;21.80;88.00;;;;;;5113261;28;20426;-87
2021/08/08 09:38:09;;;;;;;1.83;1.33;;;21.90;87.80;;;;;;5112832;28;20422;-86
2021/08/08 09:40:58;;;;;;;1.50;1.07;;;22.00;87.90;;;;;;5113735;28;20438;-88
2021/08/08 09:43:26;;;;;;;9.57;1.40;;;22.20;89.40;;;;;;5113177;28;20960;-88
2021/08/08 09:45:52;;;;;;;2.30;1.30;;;22.40;87.70;;;;;;5112868;28;20419;-87
2021/08/08 09:48:17;;;;;;;2.33;1.50;;;22.50;86.80;;;;;;5112814;28;20419;-87
2021/08/08 09:50:44;;;;;;;1.53;1.40;;;22.40;86.00;;;;;;5112788;28;20205;-87
2021/08/08 09:53:17;;;;;;;4.40;1.53;;;22.60;87.30;;;;;;5104397;28;20202;-87
2021/08/08 09:55:43;;;;;;;1.83;1.20;;;22.60;86.20;;;;;;5092680;28;20420;-88
2021/08/08 09:58:24;;;;;;;1.67;1.43;;;22.60;85.90;;;;;;5092731;28;20420;-88
2021/08/08 10:00:56;;;;;;;1.60;1.50;;;22.60;86.60;;;;;;5092953;28;20561;-88
2021/08/08 10:03:21;;;;;;;1.37;1.20;;;22.70;86.30;;;;;;5092290;28;20455;-87
2021/08/08 10:05:47;;;;;;;2.47;1.70;;;22.60;85.60;;;;;;5092337;28;20417;-87
2021/08/08 10:08:14;;;;;;;3.03;1.40;;;22.40;86.00;;;;;;5092092;28;20257;-88
2021/08/08 10:10:42;;;;;;;1.80;1.40;;;22.20;86.10;;;;;;5092273;28;20170;-88
2021/08/08 10:13:13;;;;;;;2.00;1.53;;;22.00;86.90;;;;;;5093689;28;20535;-87
2021/08/08 10:15:44;;;;;;;1.53;1.30;;;21.80;87.50;;;;;;5092006;28;20423;-87
2021/08/08 10:18:13;;;;;;;2.77;1.50;;;21.60;88.10;;;;;;5111799;28;20408;-87
2021/08/08 10:20:39;;;;;;;1.70;1.17;;;21.70;88.70;;;;;;5112471;28;20511;-87
2021/08/08 10:23:05;;;;;;;2.37;1.30;;;22.10;88.80;;;;;;5112378;28;20462;-87
2021/08/08 10:25:31;;;;;;;2.87;1.80;;;22.30;86.90;;;;;;5093799;28;20175;-89
2021/08/08 10:27:58;;;;;;;3.00;1.77;;;22.30;86.50;;;;;;5092482;28;20409;-88
2021/08/08 10:30:24;;;;;;;2.23;1.60;;;22.20;87.30;;;;;;5092654;28;20509;-88
2021/08/08 10:32:50;;;;;;;3.33;1.90;;;22.10;87.90;;;;;;5092142;28;20864;-88
2021/08/08 10:35:18;;;;;;;1.47;1.40;;;21.90;87.50;;;;;;5079541;28;20508;-87
2021/08/08 10:37:46;;;;;;;1.50;1.40;;;21.80;87.90;;;;;;5096322;28;20499;-87
2021/08/08 10:40:12;;;;;;;6.23;1.97;;;22.00;89.30;;;;;;5090563;28;20501;-87
2021/08/08 10:42:43;;;;;;;3.97;1.57;;;22.30;87.20;;;;;;5093073;28;20980;-87
2021/08/08 10:45:21;;;;;;;2.10;1.50;;;22.60;86.50;;;;;;5095171;28;20415;-87
2021/08/08 10:47:56;;;;;;;2.20;1.77;;;22.70;86.50;;;;;;5095598;28;20418;-88
2021/08/08 10:50:22;;;;;;;4.40;1.53;;;22.80;86.70;;;;;;5095272;28;20403;-87
2021/08/08 10:52:49;;;;;;;3.07;1.90;;;22.90;85.90;;;;;;5079429;28;20451;-87
2021/08/08 10:55:28;;;;;;;2.60;1.60;;;22.90;84.90;;;;;;5078515;28;20416;-87
2021/08/08 10:57:54;;;;;;;12.00;2.13;;;22.70;84.40;;;;;;5078636;28;20420;-87
2021/08/08 11:00:20;;;;;;;3.37;1.60;;;22.40;84.90;;;;;;5080082;28;20842;-87
2021/08/08 11:02:46;;;;;;;3.53;1.70;;;22.40;85.50;;;;;;5081274;28;20640;-87
2021/08/08 11:05:18;;;;;;;1.93;1.60;;;22.70;86.00;;;;;;5077691;28;20960;-87
2021/08/08 11:07:48;;;;;;;2.97;1.50;;;22.90;84.30;;;;;;5078639;28;20523;-87
2021/08/08 11:10:27;;;;;;;1.60;1.50;;;23.10;85.20;;;;;;5078285;28;20428;-87
2021/08/08 11:12:52;;;;;;;1.90;1.53;;;23.20;84.50;;;;;;5078717;28;20440;-87
2021/08/08 11:15:19;;;;;;;1.67;1.30;;;23.30;85.20;;;;;;5078552;28;20762;-87
2021/08/08 11:17:47;;;;;;;2.90;1.60;;;23.30;84.30;;;;;;5078467;28;20179;-88
2021/08/08 11:20:13;;;;;;;3.07;1.97;;;23.10;83.70;;;;;;5078653;28;20550;-87
2021/08/08 11:22:39;;;;;;;1.67;1.50;;;22.90;85.00;;;;;;5080590;28;21013;-86
2021/08/08 11:25:14;;;;;;;2.47;1.90;;;22.80;84.30;;;;;;5078281;28;20469;-87
2021/08/08 11:27:42;;;;;;;1.70;1.50;;;22.90;85.00;;;;;;5078905;28;20418;-87
2021/08/08 11:30:13;;;;;;;1.57;1.53;;;23.30;83.70;;;;;;5083822;28;20417;-87
2021/08/08 11:32:41;;;;;;;3.33;1.70;;;23.70;82.90;;;;;;5079033;28;20490;-87
2021/08/08 11:35:07;;;;;;;1.83;1.50;;;23.60;82.10;;;;;;5058942;28;20476;-87
2021/08/08 11:37:35;;;;;;;2.60;1.80;;;23.60;82.80;;;;;;5058951;28;20413;-87
2021/08/08 11:40:02;;;;;;;2.00;1.70;;;23.50;81.60;;;;;;5061989;28;20428;-87
2021/08/08 11:42:32;;;;;;;5.37;1.60;;;23.30;81.90;;;;;;5069416;28;20473;-87
2021/08/08 11:44:58;;;;;;;2.17;1.77;;;23.10;81.60;;;;;;5067534;28;20405;-87
2021/08/08 11:47:27;;;;;;;1.50;1.43;;;23.00;82.20;;;;;;5069142;28;20470;-88
2021/08/08 11:49:54;;;;;;;2.03;1.60;;;22.90;82.90;;;;;;5059618;28;20424;-88
2021/08/08 11:52:21;;;;;;;3.97;1.67;;;23.00;83.50;;;;;;5096527;28;20432;-88
2021/08/08 11:54:58;;;;;;;3.17;1.50;;;23.10;85.70;;;;;;5061838;28;20410;-87
2021/08/08 11:57:29;;;;;;;1.70;1.50;;;23.10;84.40;;;;;;5058442;28;20417;-86
2021/08/08 11:59:56;;;;;;;2.17;1.70;;;23.00;86.00;;;;;;5059069;28;20422;-87
2021/08/08 12:02:25;;;;;;;3.43;1.60;;;23.00;85.90;;;;;;5071111;28;21046;-86
2021/08/08 12:04:52;;;;;;;1.80;1.77;;;23.00;85.60;;;;;;5078820;28;20478;-88
2021/08/08 12:07:20;;;;;;;2.43;1.70;;;23.00;85.50;;;;;;5083065;28;20733;-88
2021/08/08 12:09:47;;;;;;;4.87;1.83;;;23.10;84.20;;;;;;5067520;28;20473;-88
2021/08/08 12:12:13;;;;;;;4.40;1.90;;;23.00;83.80;;;;;;5076585;28;20432;-87
2021/08/08 12:14:45;;;;;;;3.73;2.10;;;22.90;83.60;;;;;;5063751;28;20986;-87
2021/08/08 12:17:16;;;;;;;1.70;1.50;;;22.90;84.20;;;;;;5062015;28;20417;-88
2021/08/08 12:19:48;;;;;;;1.60;1.50;;;23.00;85.10;;;;;;5072197;28;20408;-87
2021/08/08 12:22:40;;;;;;;3.50;1.63;;;23.20;83.00;;;;;;5066562;28;20460;-87
2021/08/08 12:25:17;;;;;;;3.57;1.60;;;23.70;83.90;;;;;;5069872;28;20485;-87
2021/08/08 12:27:45;;;;;;;1.87;1.47;;;24.00;81.90;;;;;;5064169;28;20466;-87
2021/08/08 12:30:14;;;;;;;3.57;1.70;;;24.10;80.50;;;;;;5060423;28;20470;-88
2021/08/08 12:32:41;;;;;;;2.70;1.50;;;24.00;79.70;;;;;;5071461;28;20483;-87
2021/08/08 12:35:21;;;;;;;2.13;1.53;;;23.90;80.00;;;;;;5064979;28;20421;-87
2021/08/08 12:37:47;;;;;;;2.33;1.57;;;23.70;80.70;;;;;;5086308;28;20464;-87
2021/08/08 12:40:18;;;;;;;1.50;1.47;;;23.60;81.30;;;;;;5063105;28;20444;-86
2021/08/08 12:42:44;;;;;;;4.37;1.70;;;23.70;80.70;;;;;;5071290;28;20464;-87
2021/08/08 12:45:12;;;;;;;1.80;1.70;;;23.90;81.10;;;;;;5066803;28;21005;-86
2021/08/08 12:47:41;;;;;;;1.90;1.53;;;24.10;78.90;;;;;;5074694;28;20472;-86